Date,TemperatureHighF,TemperatureAvgF,TemperatureLowF,DewpointHighF,DewpointAvgF,DewpointLowF,HumidityHigh,HumidityAvg,HumidityLow,PressureMaxIn,PressureMinIn,WindSpeedMaxMPH,WindSpeedAvgMPH,GustSpeedMaxMPH,PrecipitationSumIn
2013-1-1,39.7,30.9,26.4,26.3,24.5,18.6,88,77,70,28.75,28.16,20,6,20,0.00
2013-1-2,48.6,23.2,19.8,22.1,11.6,6.0,74,62,43,28.85,27.89,15,5,15,0.00
2013-1-3,40.1,25.6,17.2,24.0,12.8,8.1,73,59,41,28.71,28.20,17,5,17,0.01
2013-1-4,43.9,27.0,21.2,26.3,16.7,9.0,88,65,54,28.85,27.88,21,10,21,0.00
2013-1-5,43.0,30.9,24.4,19.2,16.8,10.9,73,58,34,28.84,27.89,16,5,16,0.00
2013-1-6,38.5,34.5,31.5,28.5,23.0,15.5,81,63,54,28.74,28.43,12,4,12,0.00
2013-1-7,36.9,30.1,23.0,28.1,20.9,16.9,80,69,51,28.87,28.04,15,4,15,0.00
2013-1-8,49.5,32.9,19.0,23.4,19.5,14.0,93,62,34,28.82,28.05,10,2,10,0.00
2013-1-9,50.0,41.2,24.8,40.6,31.2,10.9,84,68,55,28.87,28.04,21,7,21,0.00
2013-1-10,50.4,39.8,32.0,27.0,23.6,10.2,72,54,32,29.03,28.02,12,3,12,0.00
2013-1-11,42.6,36.4,33.4,36.4,29.3,11.5,99,77,53,28.90,27.93,17,2,17,0.24
2013-1-12,62.8,49.0,32.9,56.4,45.8,9.9,99,90,64,28.89,28.17,11,2,11,0.00
2013-1-13,63.3,54.0,27.9,55.1,48.2,9.1,99,83,56,28.98,27.96,24,2,24,0.00
2013-1-14,61.2,41.5,22.8,55.7,35.8,15.8,97,81,56,28.92,27.89,14,5,14,0.32
2013-1-15,61.2,31.7,29.8,32.0,30.6,12.3,99,96,64,28.93,28.04,11,1,11,0.09
2013-1-16,65.3,32.0,25.2,48.1,31.0,6.8,99,97,46,28.92,27.87,14,0,14,0.01
2013-1-17,56.8,31.9,29.7,27.4,24.8,12.3,86,75,38,28.84,27.94,18,1,18,0.01
2013-1-18,42.1,26.9,18.9,39.1,9.4,-0.1,99,50,29,28.87,28.04,18,6,18,0.00
2013-1-19,53.1,43.0,25.2,35.7,1.2,-10.4,87,21,10,28.95,28.18,15,6,16,0.11
2013-1-20,63.1,37.9,23.5,50.4,12.1,-7.4,64,38,15,28.52,28.26,21,11,26,0.00
2013-1-21,52.3,24.0,11.8,25.6,8.8,-6.1,81,54,27,28.81,28.18,26,6,26,0.00
2013-1-22,52.0,7.2,3.6,24.7,-5.0,-10.6,85,57,41,28.85,28.22,20,8,20,0.00
2013-1-23,16.9,9.7,3.2,6.8,-3.7,-9.0,77,55,36,28.67,28.46,13,5,13,0.00
2013-1-24,20.3,13.1,8.1,7.2,0.6,-8.9,83,59,39,28.89,28.43,14,5,14,0.00
2013-1-25,20.8,11.2,6.6,16.1,2.5,-8.9,86,68,49,28.87,28.42,9,2,11,0.00
2013-1-26,20.7,19.6,18.7,15.1,13.1,9.2,79,75,73,28.48,28.42,14,7,14,0.00
2013-1-27,34.7,28.1,14.2,15.4,13.3,9.4,81,55,41,28.94,28.79,8,2,8,0.02
2013-1-28,50.5,36.2,25.3,49.3,33.2,13.7,99,89,62,28.85,28.51,11,3,11,0.02
2013-1-29,64.6,55.3,48.9,55.8,49.8,44.8,99,84,60,28.59,28.21,9,3,11,0.02
2013-1-30,66.6,55.5,49.3,55.0,50.7,44.8,99,85,65,28.41,27.80,17,4,21,0.81
2013-1-31,49.3,28.1,20.1,47.1,18.8,5.9,96,68,53,28.30,27.74,28,11,28,0.06
2013-2-1,21.7,14.1,7.9,16.3,4.9,-2.2,88,67,48,28.71,28.23,24,7,24,0.00
2013-2-2,26.4,16.3,4.5,20.0,7.2,-2.0,89,69,36,28.71,28.39,8,3,8,0.00
2013-2-3,29.5,23.1,16.0,21.4,16.6,7.3,90,76,56,28.40,28.23,15,4,15,0.00
2013-2-4,31.1,22.6,15.6,29.2,13.9,5.8,96,71,39,28.46,28.29,20,4,20,0.00
2013-2-5,38.3,32.4,29.8,32.7,28.9,24.5,97,87,68,28.37,28.26,14,4,14,0.05
2013-2-6,31.5,28.2,23.5,27.6,22.0,18.3,89,78,66,28.75,28.36,13,5,13,27.21
2013-2-7,24.6,24.6,24.6,19.4,19.4,19.4,80,80,80,28.79,28.57,2,2,2,0.00
2013-2-8,36.3,29.0,23.0,34.1,25.2,17.1,95,85,66,28.57,28.26,28,6,28,0.08
2013-2-9,30.0,25.5,20.1,18.5,13.9,10.9,83,63,47,28.79,28.44,21,9,21,0.00
2013-2-10,39.7,29.4,14.9,16.0,12.6,8.5,76,53,35,28.81,28.56,7,3,7,0.01
2013-2-11,59.7,43.6,32.0,43.3,27.5,9.2,99,62,18,28.56,28.20,27,6,27,0.11
2013-2-12,47.3,38.6,33.6,26.2,20.1,15.1,63,49,31,28.47,28.30,27,10,27,0.00
2013-2-13,38.1,33.4,30.2,31.0,23.6,17.2,98,69,52,28.41,28.13,8,2,8,0.00
2013-2-14,42.4,34.4,26.6,29.1,23.4,19.9,94,65,48,28.43,28.26,14,4,14,0.07
2013-2-15,35.8,35.3,34.9,25.2,24.5,23.7,66,65,63,28.41,28.40,3,2,3,0.00
2013-2-16,35.4,29.0,23.7,27.3,19.2,9.9,78,67,48,28.46,28.34,7,5,7,0.00
2013-2-17,21.4,17.4,14.9,10.7,8.2,5.2,80,67,54,28.53,28.31,12,8,12,0.00
2013-2-18,37.4,29.2,9.3,13.3,8.4,0.5,67,43,28,28.72,28.49,10,3,10,0.00
2013-2-19,45.7,35.0,23.2,36.7,24.5,13.0,90,67,43,28.49,28.14,18,6,18,0.06
2013-2-20,23.2,19.0,15.8,15.2,8.8,3.8,75,64,55,28.59,28.30,22,9,22,0.00
2013-2-21,26.6,19.9,15.8,13.1,9.7,5.5,74,65,53,28.74,28.54,19,6,19,0.00
2013-2-22,25.3,22.8,18.7,23.6,17.6,11.1,93,81,64,28.74,28.55,10,2,10,0.00
2013-2-23,44.8,32.9,25.2,35.7,29.2,23.4,96,87,63,28.56,28.30,6,1,6,0.02
2013-2-24,37.0,30.0,24.1,34.1,22.4,14.8,92,73,61,28.56,28.30,17,5,17,0.00
2013-2-25,40.5,31.0,22.6,18.0,15.3,10.5,76,55,32,28.64,28.55,9,3,9,0.00
2013-2-26,32.9,30.4,27.5,32.5,24.0,16.0,99,79,57,28.60,28.14,12,2,12,0.01
2013-2-27,41.2,35.5,32.0,36.2,31.7,29.5,99,87,67,28.17,28.07,16,3,16,0.27
2013-2-28,33.8,31.8,29.8,29.5,25.5,22.7,88,78,70,28.22,28.11,16,6,16,0.00
2013-3-1,32.4,29.0,24.4,26.9,22.4,18.3,90,76,63,28.37,28.22,11,6,11,0.00
2013-3-2,28.2,24.1,21.7,18.5,15.9,13.9,77,71,60,28.35,28.29,14,6,14,0.00
2013-3-3,27.7,23.3,20.1,17.9,14.6,11.5,81,70,55,28.39,28.30,16,8,16,0.00
2013-3-4,34.0,25.3,18.3,14.1,11.5,8.5,77,57,41,28.50,28.38,21,8,21,0.00
2013-3-5,46.0,34.2,23.7,26.1,9.9,-5.8,87,42,15,28.50,28.22,13,3,13,0.00
2013-3-11,52.2,47.6,42.6,46.0,27.7,20.0,97,48,34,28.63,28.33,4,2,4,0.18
2013-3-12,49.3,35.0,33.6,49.0,26.2,22.0,99,70,62,28.46,28.26,14,7,14,0.22
2013-3-13,39.0,30.7,24.3,27.5,21.0,13.7,90,68,44,28.51,28.38,16,6,16,0.00
2013-3-14,36.0,27.8,21.9,16.4,12.2,8.5,77,53,35,28.59,28.48,21,10,21,0.00
2013-3-15,50.5,37.9,26.4,29.2,20.4,12.5,62,51,39,28.55,28.28,17,5,17,0.00
2013-3-16,43.5,40.0,36.9,42.4,35.3,28.9,99,84,57,28.38,28.14,14,3,14,0.01
2013-3-17,36.9,32.9,28.2,34.0,24.0,19.2,91,71,53,28.66,28.37,11,4,11,0.00
2013-3-18,29.8,26.8,25.2,25.3,23.3,18.9,98,88,65,28.66,28.56,13,4,13,0.00
2013-3-21,41.0,25.8,17.8,25.9,13.1,4.1,87,62,24,28.30,28.24,11,7,11,0.00
2013-3-22,34.7,25.6,20.5,15.0,11.5,4.9,69,56,41,28.40,28.27,10,7,10,0.00
2013-3-23,44.1,32.9,23.9,18.5,15.8,14.6,68,51,31,28.47,28.41,10,3,10,0.00
2013-3-24,34.5,29.3,25.7,26.5,19.7,16.2,96,69,50,28.42,28.07,4,2,4,0.00
2013-3-25,34.5,30.5,27.1,29.9,28.3,26.8,99,92,80,28.15,27.99,5,1,5,0.02
2013-3-26,41.0,33.5,30.2,28.7,26.0,22.3,85,75,50,28.48,28.17,11,6,11,0.21
2013-3-27,39.4,33.5,29.3,28.3,23.2,19.9,90,66,50,28.59,28.47,11,6,11,0.01
2013-3-28,129.7,34.1,30.6,27.0,25.6,23.0,84,71,61,28.69,28.54,14,6,14,0.00
2013-3-29,50.0,39.9,33.3,27.1,21.9,14.1,73,52,28,28.70,28.61,11,4,11,0.00
2013-3-30,54.5,42.2,29.7,25.2,11.1,-10.4,66,36,10,28.69,28.55,10,2,10,0.00
2013-3-31,44.6,40.6,36.5,43.6,29.0,5.4,99,71,24,28.55,28.23,9,2,9,0.31
2013-4-1,47.7,39.6,31.5,39.5,28.3,8.6,89,67,33,28.44,28.22,17,7,17,0.01
2013-4-2,39.9,31.3,25.0,13.1,8.7,-2.3,59,41,21,28.61,28.43,14,7,14,0.00
2013-4-3,40.8,31.6,24.6,13.4,7.4,-4.4,56,39,19,28.82,28.60,16,6,16,0.00
2013-4-4,46.8,33.1,19.4,14.8,5.4,-9.7,59,36,12,28.81,28.47,13,2,13,0.00
2013-4-5,55.9,44.3,34.5,25.1,16.6,7.7,61,37,21,28.58,28.38,16,6,16,0.00
2013-4-6,59.9,40.5,25.7,18.9,5.9,-12.6,70,34,10,28.75,28.57,12,4,12,0.00
2013-4-7,73.0,53.9,41.5,47.1,24.4,8.8,73,36,20,28.63,28.43,13,4,13,0.00
2013-4-8,75.4,63.0,52.2,44.5,38.4,30.2,72,46,23,28.58,28.44,13,3,13,0.00
2013-4-9,83.3,69.0,59.5,50.5,44.2,38.1,65,45,24,28.63,28.46,11,4,11,0.00
2013-4-10,84.0,73.8,60.8,53.7,46.5,39.1,75,42,25,28.51,28.35,21,6,21,0.01
2013-4-11,82.2,67.7,55.0,54.1,49.9,41.0,84,59,27,28.43,28.22,11,3,11,0.00
2013-4-12,69.3,56.2,44.4,59.5,45.7,26.5,99,75,27,28.33,28.14,17,5,17,1.06
2013-4-13,61.5,49.0,38.7,33.5,25.5,12.0,70,45,19,28.47,28.32,15,6,15,0.00
2013-4-14,66.4,50.7,34.0,32.0,25.6,14.9,78,44,18,28.62,28.46,11,3,11,0.00
2013-4-15,59.2,55.0,50.7,47.8,40.6,31.4,75,60,43,28.69,28.59,14,3,14,0.00
2013-4-16,79.7,63.7,51.4,57.1,51.4,47.1,94,69,33,28.71,28.58,9,3,9,0.09
2013-4-17,69.8,61.8,56.5,57.4,55.9,54.1,97,82,63,28.72,28.64,4,2,4,0.11
2013-4-18,78.1,64.1,57.2,59.4,55.5,52.8,99,76,49,28.70,28.46,8,4,8,0.00
2013-4-19,71.1,47.1,43.2,58.6,37.6,30.8,84,70,56,28.42,28.12,11,6,11,0.31
2013-4-20,50.9,41.2,34.5,30.8,21.5,11.4,74,49,24,28.82,28.32,16,8,16,0.00
2013-4-21,54.0,40.2,27.9,20.2,13.9,-0.6,68,40,15,29.00,28.82,10,3,10,0.00
2013-4-22,58.5,44.7,33.8,28.8,17.6,2.8,61,39,16,28.97,28.81,16,3,16,0.00
2013-4-23,65.8,47.8,32.9,37.7,31.2,26.4,84,57,27,28.83,28.56,11,3,11,0.00
2013-4-24,76.1,54.2,39.9,56.2,42.2,29.0,90,68,32,28.60,28.25,18,5,18,0.19
2013-4-25,63.3,46.6,34.5,31.4,20.3,-6.7,85,45,10,28.79,28.59,15,5,15,0.01
2013-4-26,66.2,50.2,35.4,34.0,22.9,9.1,75,42,16,28.92,28.79,10,3,10,0.00
2013-4-27,71.6,56.6,43.9,34.6,25.8,18.0,48,34,18,28.88,28.72,11,3,11,0.00
2013-4-28,54.7,49.1,46.2,48.7,42.3,33.6,99,80,47,28.73,28.57,14,2,14,0.45
2013-4-29,56.7,50.9,46.4,53.1,49.8,46.1,99,96,84,28.59,28.52,6,2,6,0.08
2013-4-30,59.7,52.9,49.8,56.6,51.6,49.6,99,96,80,28.77,28.58,10,3,10,0.05
2013-5-1,71.8,57.7,48.6,50.8,32.8,2.0,99,52,10,28.87,28.76,10,3,10,0.00
2013-5-2,73.0,57.2,43.2,43.2,32.2,11.5,81,46,15,28.89,28.78,12,3,12,0.00
2013-5-3,68.0,56.1,46.8,43.4,38.4,32.7,75,54,36,28.83,28.73,18,4,18,0.00
2013-5-4,67.6,52.6,41.0,41.1,35.5,29.7,84,57,30,28.78,28.64,12,3,12,0.00
2013-5-5,68.2,53.1,42.1,38.1,31.1,4.7,75,50,12,28.69,28.59,13,3,13,0.00
2013-5-6,53.8,49.2,42.3,53.5,45.6,36.1,99,88,65,28.64,28.55,11,2,11,0.20
2013-5-7,98.4,54.8,53.6,57.5,54.5,10.2,99,99,99,28.56,28.44,12,4,12,1.03
2013-5-8,68.4,55.8,47.3,55.3,48.8,-6.1,99,82,42,28.52,28.43,15,2,15,0.25
2013-5-9,70.7,59.9,52.0,54.7,51.1,48.1,97,75,50,28.55,28.41,10,3,10,0.00
2013-5-10,78.1,63.9,57.0,58.9,53.3,49.5,99,72,41,28.56,28.38,16,2,16,0.25
2013-5-11,66.6,59.5,53.6,62.7,55.2,46.3,99,87,56,28.38,28.28,10,3,10,0.18
2013-5-12,53.8,47.2,41.4,47.3,28.2,16.0,94,52,30,28.52,28.31,13,6,13,0.00
2013-5-13,50.7,42.9,35.4,26.6,19.4,7.7,65,43,23,28.65,28.51,13,5,13,0.00
2013-5-14,61.5,47.5,30.6,32.3,25.5,13.9,85,49,21,28.67,28.49,11,2,11,0.00
2013-5-15,86.9,67.6,45.7,53.0,43.1,31.5,72,46,24,28.50,28.27,12,4,12,0.00
2013-5-16,74.8,66.8,59.0,61.3,53.8,43.7,99,68,37,28.51,28.32,12,5,12,0.14
2013-5-17,79.5,67.3,56.8,59.6,52.8,36.7,96,66,25,28.64,28.50,8,2,8,0.00
2013-5-18,67.5,60.8,55.6,59.2,52.3,44.5,99,75,61,28.70,28.63,5,1,5,0.00
2013-5-19,61.0,57.5,55.0,60.7,57.2,54.8,99,99,99,28.69,28.58,3,0,3,0.04
2013-5-20,79.0,67.6,60.1,70.4,64.0,59.5,99,90,55,28.63,28.51,6,1,6,0.05
2013-5-21,84.4,73.3,62.6,68.6,61.5,52.8,99,72,37,28.54,28.40,5,1,5,0.00
2013-5-22,83.3,71.9,61.2,63.9,57.0,49.5,99,63,38,28.47,28.38,4,0,4,0.15
2013-5-23,77.7,65.5,59.9,66.1,57.8,44.1,99,81,36,28.43,28.29,9,1,9,0.02
2013-5-24,59.9,46.1,38.8,56.0,37.6,25.4,95,74,51,28.72,28.34,14,5,14,0.00
2013-5-25,57.4,45.8,35.2,32.8,27.6,20.9,78,53,31,28.73,28.65,12,5,12,0.00
2013-5-26,63.1,52.1,39.9,33.1,25.9,15.2,67,41,20,28.76,28.68,9,3,9,0.00
2013-5-27,59.0,51.6,40.1,48.8,40.2,32.6,86,67,43,28.79,28.68,4,0,4,0.00
2013-5-28,73.2,60.7,50.9,64.5,54.6,45.6,96,81,58,28.70,28.57,11,1,11,0.00
2013-5-29,82.0,71.2,60.1,60.8,55.3,48.5,97,62,36,28.66,28.59,7,2,7,0.00
2013-5-30,84.6,73.3,62.4,64.3,59.1,55.4,81,64,43,28.75,28.64,6,1,6,0.00
2013-5-31,85.3,74.2,63.0,61.5,56.9,46.4,79,58,31,28.70,28.55,7,1,7,0.00
2013-6-1,84.4,74.6,66.4,65.6,60.8,52.2,80,65,38,28.59,28.43,5,1,5,0.00
2013-6-2,77.7,70.9,65.8,62.7,58.4,53.8,78,66,46,28.44,28.37,6,2,6,0.00
2013-6-3,68.4,63.3,55.9,64.1,56.9,48.8,95,81,58,28.55,28.40,6,2,6,0.00
2013-6-4,70.9,59.0,45.3,48.9,38.7,29.3,76,52,26,28.67,28.54,4,1,4,0.00
2013-6-5,73.4,62.1,51.3,56.3,48.8,42.8,76,63,48,28.69,28.54,8,1,8,0.00
2013-6-6,64.2,59.5,56.7,60.0,57.1,55.3,99,93,75,28.56,28.38,4,0,4,0.80
2013-6-7,64.9,61.8,59.7,64.7,61.6,59.4,99,99,99,28.38,28.25,49,1,49,0.14
2013-6-8,70.9,62.2,56.3,59.8,56.1,53.1,99,82,57,28.66,28.34,4,2,4,0.00
2013-6-9,73.4,65.7,57.6,66.7,60.5,55.5,98,85,68,28.72,28.61,4,1,4,0.00
2013-6-10,71.6,65.7,61.5,71.3,64.9,60.4,99,98,87,28.62,28.35,5,1,5,0.37
2013-6-11,71.8,66.2,61.7,63.8,61.5,59.6,96,85,70,28.45,28.35,8,3,8,0.00
2013-6-12,79.3,71.5,63.3,68.4,63.5,57.9,99,78,52,28.46,28.35,7,2,7,0.00
2013-6-13,72.3,65.1,59.5,69.6,62.3,52.5,99,91,76,28.36,28.12,11,4,11,0.33
2013-6-14,70.3,62.5,55.2,52.6,49.7,43.0,85,66,40,28.57,28.27,10,3,10,0.00
2013-6-15,73.8,64.5,53.2,57.1,46.7,32.7,95,59,26,28.65,28.56,5,2,5,0.00
2013-6-16,74.1,66.6,59.7,62.4,57.7,48.6,89,74,59,28.59,28.46,10,2,10,0.00
2013-6-17,78.4,70.7,65.5,64.3,60.2,55.5,88,72,49,28.53,28.46,4,1,4,0.00
2013-6-18,71.8,66.6,61.2,67.1,62.6,58.5,99,87,77,28.49,28.37,4,0,4,0.33
2013-6-19,71.2,63.2,55.4,61.1,56.3,52.1,99,81,54,28.69,28.46,1,0,1,0.01
2013-6-20,76.3,66.4,57.4,62.7,59.2,54.8,96,79,56,28.77,28.68,6,1,6,0.00
2013-6-21,69.3,61.8,59.4,65.0,60.8,59.1,99,97,85,28.80,28.75,4,0,4,0.00
2013-6-22,80.8,70.9,60.8,66.9,63.1,59.4,97,78,59,28.77,28.66,2,1,2,0.00
2013-6-23,81.5,75.0,62.2,68.8,63.6,60.4,97,69,60,28.73,28.63,7,1,7,0.00
2013-6-24,80.6,72.8,64.6,68.6,64.4,60.2,95,77,56,28.70,28.60,5,1,5,0.00
2013-6-25,84.2,74.5,66.4,67.8,63.0,54.8,94,70,47,28.63,28.48,11,2,11,0.00
2013-6-26,78.6,71.3,66.6,66.8,63.2,58.1,89,77,59,28.53,28.41,6,1,6,0.00
2013-6-27,72.0,68.0,64.6,69.6,66.7,63.8,99,96,88,28.41,28.21,4,0,4,0.31
2013-6-28,77.2,68.6,61.9,68.6,65.2,55.6,99,90,59,28.21,28.09,12,1,12,0.00
2013-6-29,77.0,71.4,61.7,61.0,58.2,55.6,94,65,53,28.28,28.13,4,1,4,0.00
2013-6-30,80.6,69.2,59.7,68.3,62.8,58.5,99,82,55,28.44,28.27,8,1,8,0.06
2013-7-1,75.9,69.2,64.9,71.7,67.8,64.7,99,96,79,28.52,28.40,1,0,1,0.01
2013-7-2,77.0,71.5,67.5,72.2,68.1,65.2,99,90,71,28.68,28.51,6,1,6,0.00
2013-7-3,79.2,71.2,66.0,71.7,68.4,65.1,99,92,72,28.76,28.66,5,0,5,0.30
2013-7-4,82.4,73.7,66.6,71.4,68.2,62.2,99,85,60,28.78,28.69,5,1,5,0.01
2013-7-5,80.8,72.7,67.8,75.6,69.6,65.5,99,90,67,28.75,28.67,5,0,5,0.66
2013-7-6,84.2,74.8,65.7,74.1,67.8,63.6,99,81,58,28.76,28.61,4,0,4,0.00
2013-7-7,80.6,70.6,64.9,70.6,67.0,64.5,99,89,67,28.67,28.59,7,1,7,0.59
2013-7-8,77.2,71.8,66.9,67.3,64.5,61.3,99,79,58,28.68,28.61,0,0,0,0.00
2013-7-9,78.8,73.2,67.3,70.3,68.4,67.0,99,86,73,28.66,28.56,2,0,2,0.00
2013-7-10,80.1,70.6,67.5,70.6,66.2,61.8,99,87,68,28.55,28.43,2,0,2,0.06
2013-7-11,74.3,69.2,63.5,64.7,62.5,58.5,91,80,68,28.55,28.48,3,2,3,0.01
2013-7-12,68.7,64.8,60.3,65.3,64.2,60.0,99,98,82,28.64,28.52,0,0,0,0.07
2013-7-13,65.1,65.0,64.9,64.8,64.8,64.7,99,99,99,28.65,28.64,0,0,0,0.00
2013-7-14,80.6,73.6,68.9,69.7,65.3,64.2,99,76,60,28.88,28.82,3,1,3,0.01
2013-7-15,84.0,75.9,66.7,68.9,66.0,62.2,97,74,50,28.89,28.79,4,1,4,0.00
2013-7-16,86.5,78.4,71.2,71.0,68.2,66.1,90,72,52,28.87,28.79,2,1,2,0.00
2013-7-17,86.2,77.9,69.8,72.5,69.8,67.9,99,77,55,28.84,28.71,4,1,4,0.00
2013-7-18,86.9,78.9,70.2,74.0,70.4,68.1,98,77,57,28.74,28.61,4,1,4,0.00
2013-7-19,86.7,77.4,71.2,74.7,69.4,65.0,99,78,56,28.63,28.47,6,2,6,0.00
2013-7-20,78.8,73.2,68.5,72.5,67.1,63.9,96,82,71,28.50,28.40,6,2,6,0.04
2013-7-21,77.9,71.5,66.7,69.6,66.8,63.7,99,86,68,28.53,28.47,4,0,4,0.00
2013-7-22,76.8,69.9,65.3,72.8,68.8,65.0,99,97,83,28.52,28.36,6,0,6,0.00
2013-7-23,77.5,70.8,66.6,67.7,65.2,61.6,99,84,58,28.34,28.28,6,2,6,0.30
2013-7-24,69.1,65.9,62.8,62.9,56.2,51.2,99,73,56,28.49,28.30,4,2,4,0.08
2013-7-25,71.4,64.0,55.8,54.5,51.7,48.6,86,66,46,28.59,28.52,3,2,3,0.00
2013-7-26,75.0,65.2,51.8,57.3,53.2,50.4,95,68,43,28.65,28.56,3,1,3,0.00
2013-7-27,68.0,66.3,64.0,66.8,65.2,62.0,99,96,93,28.54,28.46,2,0,2,0.01
2013-7-28,74.5,67.0,61.5,64.4,58.6,50.2,99,79,43,28.52,28.43,4,1,4,0.11
2013-7-29,70.0,64.9,52.7,52.9,51.1,48.0,93,62,46,28.73,28.57,4,1,4,0.00
2013-7-30,74.3,64.9,54.3,59.3,54.3,50.2,97,71,47,28.78,28.70,4,1,4,0.00
2013-7-31,74.3,64.7,56.7,63.5,59.3,55.3,98,84,61,28.71,28.52,5,1,5,0.00
2013-8-1,76.6,68.1,63.3,66.8,62.1,57.6,99,83,57,28.53,28.41,6,1,6,0.00
2013-8-2,75.6,68.1,59.2,61.5,55.4,48.8,95,68,42,28.54,28.46,8,2,8,0.00
2013-8-3,68.7,66.0,62.1,64.1,60.4,56.9,96,83,68,28.54,28.49,5,2,5,0.00
2013-8-4,71.1,63.2,56.8,61.4,54.2,43.9,97,76,42,28.59,28.52,11,3,11,0.00
2013-9-24,65.7,57.9,48.7,46.3,44.3,41.8,85,62,43,28.53,28.50,4,1,4,0.01
2013-9-25,64.2,53.9,45.1,51.0,45.2,41.1,98,75,44,28.52,27.89,4,0,4,0.00
2013-9-26,70.2,58.4,47.5,51.9,45.2,36.1,94,65,29,28.62,27.92,4,0,4,0.00
2013-9-27,68.0,54.3,46.4,53.2,47.2,42.7,93,78,44,28.75,28.61,4,0,4,0.00
2013-9-28,60.6,55.2,50.4,56.0,51.5,47.6,99,88,65,28.82,28.17,4,0,4,0.05
2013-9-29,65.7,55.4,45.0,53.6,47.8,44.7,99,78,52,28.73,28.05,5,1,5,0.00
2013-9-30,68.5,55.3,47.3,57.8,49.9,6.3,98,83,10,28.61,28.54,3,0,3,0.00
2013-10-1,72.5,63.8,56.3,58.1,55.3,52.0,96,75,49,28.63,28.56,7,2,7,0.00
2013-10-2,75.9,66.9,61.2,60.2,56.5,53.0,88,71,46,28.65,28.58,8,2,8,0.00
2013-10-3,77.2,64.7,58.8,62.7,59.1,8.2,97,83,51,28.68,28.59,3,0,3,0.00
2013-10-4,75.2,66.1,63.5,65.2,61.5,58.3,94,85,61,28.67,28.60,4,1,4,0.05
2013-10-5,81.1,74.0,65.1,63.7,59.9,57.0,90,62,45,28.66,28.56,6,1,6,0.00
2013-10-6,83.8,71.7,63.1,62.9,58.2,50.1,90,66,33,28.58,28.41,9,2,9,0.00
2013-10-7,68.2,54.1,48.0,62.2,45.2,38.1,99,73,53,28.63,28.31,12,4,12,0.60
2013-10-8,62.2,52.5,43.3,46.3,39.7,36.2,95,64,38,28.81,28.61,7,2,9,0.00
2013-10-9,58.6,52.2,46.6,42.9,39.4,34.9,78,62,49,28.85,28.76,7,0,7,0.00
2013-10-10,54.3,51.1,48.4,51.9,45.7,36.7,99,83,58,28.76,28.60,6,1,6,0.63
2013-10-11,56.1,52.8,50.2,55.9,52.6,49.2,99,99,99,28.60,27.99,9,3,9,0.45
2013-10-12,60.4,57.3,53.6,60.2,57.0,53.3,99,99,99,28.73,28.57,7,1,7,0.56
2013-10-13,56.3,54.5,53.4,56.0,54.3,53.2,99,99,99,28.83,28.72,4,1,4,0.38
2013-10-14,72.3,54.2,52.0,56.8,53.9,12.7,99,99,99,28.83,28.75,4,1,4,0.09
2013-10-15,63.7,57.2,0.0,57.2,53.6,50.4,99,87,68,28.77,28.60,7,1,7,0.01
2013-10-16,63.3,61.4,59.9,57.1,54.6,53.1,87,78,72,28.52,28.44,4,1,4,0.47
2013-10-17,62.6,58.7,48.6,60.7,57.1,3.5,99,94,85,28.45,27.84,11,2,11,0.20
2013-10-18,60.3,50.5,45.0,45.6,37.3,30.0,89,63,33,27.98,27.84,9,3,9,0.00
2013-10-19,57.0,46.6,38.3,45.6,39.7,33.7,95,78,47,27.95,27.74,11,2,11,0.04
2013-10-20,56.7,46.3,38.7,34.8,30.5,-1.6,81,57,29,28.03,27.87,8,3,8,0.19
2013-10-21,65.3,50.2,36.5,37.8,32.5,28.3,79,54,26,28.04,27.86,9,1,9,0.00
2013-10-22,95.0,46.4,38.3,44.3,32.7,-5.6,80,60,10,27.87,27.79,8,2,8,0.19
2013-10-23,42.3,38.3,35.1,37.8,32.7,29.2,91,80,66,27.85,27.65,13,2,13,0.08
2013-10-24,41.2,34.6,33.1,32.1,29.2,24.4,91,81,55,28.03,27.84,11,2,11,0.01
2013-10-25,41.7,35.6,31.8,31.1,27.5,24.0,83,73,53,28.21,28.03,9,3,9,0.00
2013-10-26,51.6,40.5,30.4,27.1,20.2,6.6,83,51,17,28.19,27.85,15,3,15,0.00
2013-10-27,53.4,43.9,37.0,31.7,26.3,-1.8,75,51,10,28.05,27.88,9,3,9,0.00
2013-10-28,59.4,42.1,34.2,38.1,30.6,26.7,87,66,32,28.20,28.04,7,1,7,0.00
2013-10-29,60.4,45.8,34.5,34.7,31.4,29.2,83,59,31,28.29,28.20,4,1,4,0.00
2013-10-30,70.5,56.3,44.6,53.6,43.7,-7.6,82,64,10,28.21,28.08,5,1,5,0.00
2013-10-31,64.4,57.4,52.9,56.8,53.1,50.2,99,86,61,28.10,27.63,7,1,7,0.06
2013-11-1,66.4,58.8,49.6,56.4,45.6,36.0,99,64,36,27.68,27.46,17,4,17,0.09
2013-11-2,56.3,47.3,42.3,41.8,37.9,-1.8,80,70,50,27.85,27.63,11,3,11,0.00
2013-11-3,53.2,41.9,31.6,36.9,24.9,4.7,86,56,16,28.33,27.84,14,4,14,0.00
2013-11-4,40.3,32.4,24.8,21.8,16.6,11.3,72,53,34,28.47,28.32,8,2,8,0.00
2013-11-5,53.1,38.0,30.2,33.9,21.1,17.6,81,52,31,28.46,28.31,6,1,6,0.00
2013-11-6,68.0,52.0,36.5,44.5,39.5,32.7,94,66,37,28.32,27.93,12,2,12,0.00
2013-11-7,57.7,46.0,34.3,52.1,36.4,16.5,94,70,44,28.01,27.82,17,4,17,0.07
2013-11-8,42.4,35.7,27.7,23.7,19.8,14.1,69,53,33,28.19,27.98,15,5,15,0.00
2013-11-9,54.0,42.1,27.1,26.0,16.7,2.9,76,42,15,28.19,27.92,16,2,16,0.00
2013-11-10,50.4,43.6,34.9,29.6,22.8,13.2,59,44,23,28.16,27.89,19,6,19,0.00
2013-11-11,56.1,42.7,32.4,31.6,15.8,-4.8,74,43,10,28.17,27.93,9,3,9,0.01
2013-11-12,44.1,30.4,24.8,35.8,18.8,8.3,91,63,40,28.30,27.93,16,5,16,0.01
2013-11-13,37.8,27.8,22.5,16.4,14.1,9.4,72,57,35,28.35,28.23,11,5,11,0.00
2013-11-14,53.6,40.5,25.5,15.1,1.5,-9.5,63,23,10,28.23,28.11,11,4,11,0.00
2013-11-15,56.7,46.9,39.7,39.4,6.5,-4.5,86,23,10,28.16,28.08,8,3,8,0.06
2013-11-16,59.2,48.3,38.7,46.4,40.4,36.5,98,76,45,28.19,28.07,7,1,7,0.04
2013-11-17,57.7,52.1,45.7,55.6,50.3,45.4,99,94,82,28.08,27.60,17,2,17,0.17
2013-11-18,56.8,49.0,39.0,49.6,27.2,15.0,91,45,20,27.90,27.65,20,7,20,0.00
2013-11-19,39.0,33.0,27.7,22.6,19.7,18.0,68,58,49,28.26,27.89,20,5,20,0.00
2013-11-20,42.3,31.8,24.1,21.0,13.5,4.2,74,49,24,28.40,28.25,9,2,9,0.00
2013-11-21,43.9,36.6,25.7,31.6,27.3,15.3,87,69,55,28.38,28.22,5,1,8,0.00
2013-11-22,53.2,46.8,38.7,52.6,43.7,30.9,99,89,72,28.23,27.97,11,2,11,0.02
2013-11-23,38.7,30.3,16.3,36.3,20.0,8.0,91,67,38,28.11,27.97,17,6,17,0.01
2013-11-24,21.4,15.3,13.1,11.6,2.8,0.5,81,57,46,28.27,28.11,16,7,16,0.00
2013-11-25,34.0,26.9,0.0,9.2,0.2,-17.1,62,31,10,28.32,28.12,100,6,100,0.89
2013-11-26,33.4,30.4,0.0,32.1,23.9,-18.0,99,74,10,28.12,27.58,59,2,59,0.01
2013-11-27,32.2,24.7,18.5,31.9,20.6,10.7,99,84,71,27.93,27.53,0,0,0,0.00
2013-11-28,30.7,22.3,16.3,18.5,13.6,7.9,80,69,52,28.29,27.93,0,0,0,0.00
2013-11-29,37.9,26.4,20.8,21.2,17.8,14.4,82,70,44,28.52,28.28,0,0,0,0.01
2013-11-30,29.5,20.2,0.0,18.8,16.6,15.8,83,65,63,28.51,28.17,0,0,0,0.00
2013-12-1,49.6,34.8,13.5,31.1,23.2,1.1,81,64,35,28.17,27.89,8,1,8,0.06
2013-12-2,46.9,41.1,36.9,32.6,29.8,28.1,73,64,53,27.89,27.75,5,1,5,0.00
2013-12-3,54.0,41.4,34.9,34.1,30.5,28.3,86,67,39,27.89,27.77,6,1,6,0.00
2013-12-4,55.6,45.0,35.1,39.5,35.2,30.8,91,70,44,27.96,27.88,6,1,6,0.00
2013-12-5,60.1,50.2,41.4,58.0,47.8,39.1,99,92,61,27.94,27.84,6,1,6,0.14
2013-12-6,54.0,37.4,31.1,53.5,36.5,25.5,99,97,85,28.09,27.84,11,3,11,0.72
2013-12-7,32.4,27.1,21.4,30.9,21.6,13.7,99,80,64,28.38,28.06,0,0,0,0.00
2013-12-8,22.3,19.9,18.9,21.6,16.0,13.0,97,85,75,28.38,28.10,0,0,0,0.00
2013-12-9,40.8,31.1,22.3,39.3,26.5,21.4,99,83,75,28.11,27.91,11,4,11,0.35
2013-12-10,32.5,27.1,21.9,25.1,17.2,-22.8,80,66,51,28.04,27.85,16,4,16,0.01
2013-12-11,21.9,21.1,20.1,9.0,8.3,7.2,58,57,56,28.14,28.04,14,5,14,0.00
2013-12-12,23.7,19.0,14.5,14.9,-1.0,-11.7,70,42,20,28.24,28.04,17,4,17,0.00
2013-12-13,38.5,26.6,18.1,12.0,4.8,-3.4,49,39,25,28.15,28.02,18,3,18,0.00
2013-12-14,31.1,28.6,27.3,29.4,21.2,8.9,99,76,40,28.14,27.62,9,4,9,3.02
2013-12-15,33.8,28.7,25.0,33.6,24.3,16.6,99,84,70,27.82,27.54,10,0,10,0.01
2013-12-16,27.9,25.0,22.1,22.0,17.9,15.2,83,74,62,28.00,27.81,0,0,0,0.00
2013-12-17,38.1,29.9,24.6,32.9,25.5,19.3,97,84,70,27.96,27.81,9,1,9,0.09
2013-12-18,29.5,26.3,23.2,20.3,16.2,14.4,79,65,55,28.05,27.87,9,2,9,0.00
2013-12-19,56.3,42.9,28.2,27.6,19.5,5.2,57,39,31,28.02,27.95,15,4,15,0.12
2013-12-20,54.3,48.1,41.4,45.2,30.1,15.7,84,52,30,27.99,27.87,8,2,8,0.00
2013-12-21,68.2,56.4,49.8,55.0,48.3,44.3,97,76,50,27.91,27.76,8,2,8,0.01
2013-12-22,64.4,59.7,54.9,55.7,50.5,45.2,93,72,53,27.92,27.67,17,4,17,0.04
2013-12-23,56.1,42.1,28.8,51.2,36.2,17.6,99,80,62,28.13,27.85,12,4,12,0.09
2013-12-24,30.9,22.7,12.4,21.2,10.5,-25.1,79,59,41,28.30,28.07,22,5,22,0.01
2013-12-25,38.1,18.8,10.2,8.0,4.0,0.9,69,53,32,28.33,28.12,8,2,8,0.00
2013-12-26,35.6,28.8,23.4,22.0,12.8,7.1,72,51,38,28.20,28.05,12,3,12,0.00
2013-12-27,44.8,32.9,23.7,14.8,8.7,-10.6,62,39,12,28.23,28.17,14,3,14,0.00
2013-12-28,53.8,42.6,34.2,15.1,11.8,6.7,40,29,15,28.19,28.00,8,4,9,0.00
2013-12-29,44.1,40.8,38.1,42.7,33.0,-11.5,99,80,23,28.00,27.54,14,2,14,0.84
2013-12-30,38.8,29.2,22.8,36.7,23.3,14.4,92,78,69,28.03,27.75,11,4,11,0.01
2013-12-31,39.9,24.5,22.3,28.0,14.8,10.9,78,66,50,28.12,27.93,19,6,19,0.00
2014-1-1,43.2,31.4,22.1,20.1,14.5,8.8,70,51,25,28.19,27.97,10,2,10,0.00
2014-1-2,31.1,25.7,15.3,22.9,19.4,7.0,91,77,58,27.97,27.55,16,1,16,0.00